sensor_id;sensor_type;location;lat;lon;timestamp;temperature;humidity
54622;DHT22;40521;53.146;6.556;2023-05-24T00:00:58;6.80;99.90
54622;DHT22;40521;53.146;6.556;2023-05-24T00:03:27;6.60;99.90
54622;DHT22;40521;53.146;6.556;2023-05-24T00:05:59;6.80;99.90
54622;DHT22;40521;53.146;6.556;2023-05-24T00:08:28;6.90;99.90
54622;DHT22;40521;53.146;6.556;2023-05-24T00:10:54;7.60;99.90
54622;DHT22;40521;53.146;6.556;2023-05-24T00:13:19;7.70;99.90
54622;DHT22;40521;53.146;6.556;2023-05-24T00:15:50;6.60;99.90
54622;DHT22;40521;53.146;6.556;2023-05-24T00:18:18;7.40;99.90
54622;DHT22;40521;53.146;6.556;2023-05-24T00:21:02;6.70;99.90
54622;DHT22;40521;53.146;6.556;2023-05-24T00:23:45;7.10;99.90
54622;DHT22;40521;53.146;6.556;2023-05-24T00:26:16;6.80;99.90
54622;DHT22;40521;53.146;6.556;2023-05-24T00:28:44;7.10;99.90
54622;DHT22;40521;53.146;6.556;2023-05-24T00:31:12;7.20;99.90
54622;DHT22;40521;53.146;6.556;2023-05-24T00:33:38;6.70;99.90
54622;DHT22;40521;53.146;6.556;2023-05-24T00:36:04;6.80;99.90
54622;DHT22;40521;53.146;6.556;2023-05-24T00:38:33;7.00;99.90
54622;DHT22;40521;53.146;6.556;2023-05-24T00:40:58;7.00;99.90
54622;DHT22;40521;53.146;6.556;2023-05-24T00:43:28;7.00;99.90
54622;DHT22;40521;53.146;6.556;2023-05-24T00:48:42;7.20;99.90
54622;DHT22;40521;53.146;6.556;2023-05-24T00:51:14;7.00;99.90
54622;DHT22;40521;53.146;6.556;2023-05-24T00:53:44;7.20;99.90
54622;DHT22;40521;53.146;6.556;2023-05-24T00:56:21;6.90;99.90
54622;DHT22;40521;53.146;6.556;2023-05-24T00:58:49;7.30;99.90
54622;DHT22;40521;53.146;6.556;2023-05-24T01:01:18;7.20;99.90
54622;DHT22;40521;53.146;6.556;2023-05-24T01:03:47;6.80;99.90
54622;DHT22;40521;53.146;6.556;2023-05-24T01:06:13;6.90;99.90
54622;DHT22;40521;53.146;6.556;2023-05-24T01:11:34;7.20;99.90
54622;DHT22;40521;53.146;6.556;2023-05-24T01:16:52;6.70;99.90
54622;DHT22;40521;53.146;6.556;2023-05-24T01:19:48;6.90;99.90
54622;DHT22;40521;53.146;6.556;2023-05-24T01:22:23;7.50;99.90
54622;DHT22;40521;53.146;6.556;2023-05-24T01:25:02;6.60;99.90
54622;DHT22;40521;53.146;6.556;2023-05-24T01:27:35;6.50;99.90
54622;DHT22;40521;53.146;6.556;2023-05-24T01:30:04;7.10;99.90
54622;DHT22;40521;53.146;6.556;2023-05-24T01:32:32;6.50;99.90
54622;DHT22;40521;53.146;6.556;2023-05-24T01:35:03;6.90;99.90
54622;DHT22;40521;53.146;6.556;2023-05-24T01:37:31;5.80;99.90
54622;DHT22;40521;53.146;6.556;2023-05-24T01:40:02;6.70;99.90
54622;DHT22;40521;53.146;6.556;2023-05-24T01:47:46;6.10;99.90
54622;DHT22;40521;53.146;6.556;2023-05-24T01:52:41;6.40;99.90
54622;DHT22;40521;53.146;6.556;2023-05-24T01:55:17;6.30;99.90
54622;DHT22;40521;53.146;6.556;2023-05-24T01:57:43;6.40;99.90
54622;DHT22;40521;53.146;6.556;2023-05-24T02:00:13;6.10;99.90
54622;DHT22;40521;53.146;6.556;2023-05-24T02:02:39;7.00;99.90
54622;DHT22;40521;53.146;6.556;2023-05-24T02:05:05;4.20;99.90
54622;DHT22;40521;53.146;6.556;2023-05-24T02:07:31;6.50;99.90
54622;DHT22;40521;53.146;6.556;2023-05-24T02:09:59;6.40;99.90
54622;DHT22;40521;53.146;6.556;2023-05-24T02:12:28;6.70;99.90
54622;DHT22;40521;53.146;6.556;2023-05-24T02:14:53;6.10;99.90
54622;DHT22;40521;53.146;6.556;2023-05-24T02:17:19;6.20;99.90
54622;DHT22;40521;53.146;6.556;2023-05-24T02:19:52;6.20;99.90
54622;DHT22;40521;53.146;6.556;2023-05-24T02:22:18;6.40;99.90
54622;DHT22;40521;53.146;6.556;2023-05-24T02:24:49;6.10;99.90
54622;DHT22;40521;53.146;6.556;2023-05-24T02:27:17;6.60;99.90
54622;DHT22;40521;53.146;6.556;2023-05-24T02:29:45;6.50;99.90
54622;DHT22;40521;53.146;6.556;2023-05-24T02:32:12;6.80;99.90
54622;DHT22;40521;53.146;6.556;2023-05-24T02:34:42;6.40;99.90
54622;DHT22;40521;53.146;6.556;2023-05-24T02:37:10;6.50;99.90
54622;DHT22;40521;53.146;6.556;2023-05-24T02:39:42;6.50;99.90
54622;DHT22;40521;53.146;6.556;2023-05-24T02:42:10;6.70;99.90
54622;DHT22;40521;53.146;6.556;2023-05-24T02:44:36;6.70;99.90
54622;DHT22;40521;53.146;6.556;2023-05-24T02:47:02;7.00;99.90
54622;DHT22;40521;53.146;6.556;2023-05-24T02:49:29;6.80;99.90
54622;DHT22;40521;53.146;6.556;2023-05-24T02:51:57;6.80;99.90
54622;DHT22;40521;53.146;6.556;2023-05-24T02:54:25;7.00;99.90
54622;DHT22;40521;53.146;6.556;2023-05-24T02:56:51;5.10;99.90
54622;DHT22;40521;53.146;6.556;2023-05-24T02:59:17;6.80;99.90
54622;DHT22;40521;53.146;6.556;2023-05-24T03:01:43;6.90;99.90
54622;DHT22;40521;53.146;6.556;2023-05-24T03:04:09;7.20;99.90
54622;DHT22;40521;53.146;6.556;2023-05-24T03:06:37;7.00;99.90
54622;DHT22;40521;53.146;6.556;2023-05-24T03:09:03;7.30;99.90
54622;DHT22;40521;53.146;6.556;2023-05-24T03:11:31;7.10;99.90
54622;DHT22;40521;53.146;6.556;2023-05-24T03:13:59;7.70;99.90
54622;DHT22;40521;53.146;6.556;2023-05-24T03:16:25;5.80;99.90
54622;DHT22;40521;53.146;6.556;2023-05-24T03:18:53;7.70;99.90
54622;DHT22;40521;53.146;6.556;2023-05-24T03:21:23;7.80;99.90
54622;DHT22;40521;53.146;6.556;2023-05-24T03:23:52;7.50;99.90
54622;DHT22;40521;53.146;6.556;2023-05-24T03:26:18;7.40;99.90
54622;DHT22;40521;53.146;6.556;2023-05-24T03:28:43;8.00;99.90
54622;DHT22;40521;53.146;6.556;2023-05-24T03:31:12;7.50;99.90
54622;DHT22;40521;53.146;6.556;2023-05-24T03:33:37;6.50;99.90
54622;DHT22;40521;53.146;6.556;2023-05-24T03:36:05;4.40;99.90
54622;DHT22;40521;53.146;6.556;2023-05-24T03:38:36;7.40;99.90
54622;DHT22;40521;53.146;6.556;2023-05-24T03:41:04;5.30;99.90
54622;DHT22;40521;53.146;6.556;2023-05-24T03:43:30;9.50;99.90
54622;DHT22;40521;53.146;6.556;2023-05-24T03:46:01;7.60;99.90
54622;DHT22;40521;53.146;6.556;2023-05-24T03:48:26;6.90;99.90
54622;DHT22;40521;53.146;6.556;2023-05-24T03:50:52;7.80;99.90
54622;DHT22;40521;53.146;6.556;2023-05-24T03:53:28;7.40;99.90
54622;DHT22;40521;53.146;6.556;2023-05-24T03:55:53;8.10;99.90
54622;DHT22;40521;53.146;6.556;2023-05-24T03:58:19;7.80;99.90
54622;DHT22;40521;53.146;6.556;2023-05-24T04:00:45;7.70;99.90
54622;DHT22;40521;53.146;6.556;2023-05-24T04:03:13;7.80;99.90
54622;DHT22;40521;53.146;6.556;2023-05-24T04:05:39;7.80;99.90
54622;DHT22;40521;53.146;6.556;2023-05-24T04:08:05;5.40;99.90
54622;DHT22;40521;53.146;6.556;2023-05-24T04:10:33;4.90;99.90
54622;DHT22;40521;53.146;6.556;2023-05-24T04:13:01;6.70;99.90
54622;DHT22;40521;53.146;6.556;2023-05-24T04:15:27;9.50;99.90
54622;DHT22;40521;53.146;6.556;2023-05-24T04:17:55;8.80;99.90
54622;DHT22;40521;53.146;6.556;2023-05-24T04:20:21;8.40;99.90
54622;DHT22;40521;53.146;6.556;2023-05-24T04:22:57;8.20;99.90
54622;DHT22;40521;53.146;6.556;2023-05-24T04:25:22;8.30;99.90
54622;DHT22;40521;53.146;6.556;2023-05-24T04:27:48;8.40;99.90
54622;DHT22;40521;53.146;6.556;2023-05-24T04:30:16;8.70;99.90
54622;DHT22;40521;53.146;6.556;2023-05-24T04:32:50;5.50;99.90
54622;DHT22;40521;53.146;6.556;2023-05-24T04:35:18;8.60;99.90
54622;DHT22;40521;53.146;6.556;2023-05-24T04:37:44;8.40;99.90
54622;DHT22;40521;53.146;6.556;2023-05-24T04:40:20;8.70;99.90
54622;DHT22;40521;53.146;6.556;2023-05-24T04:42:45;9.30;99.90
54622;DHT22;40521;53.146;6.556;2023-05-24T04:45:11;12.00;99.90
54622;DHT22;40521;53.146;6.556;2023-05-24T04:47:38;9.00;99.90
54622;DHT22;40521;53.146;6.556;2023-05-24T04:50:09;8.70;99.90
54622;DHT22;40521;53.146;6.556;2023-05-24T04:52:42;8.80;99.90
54622;DHT22;40521;53.146;6.556;2023-05-24T04:55:13;8.60;99.90
54622;DHT22;40521;53.146;6.556;2023-05-24T04:57:42;8.90;99.90
54622;DHT22;40521;53.146;6.556;2023-05-24T05:00:10;7.00;99.90
54622;DHT22;40521;53.146;6.556;2023-05-24T05:02:36;9.00;99.90
54622;DHT22;40521;53.146;6.556;2023-05-24T05:05:04;9.00;99.90
54622;DHT22;40521;53.146;6.556;2023-05-24T05:07:32;9.20;99.90
54622;DHT22;40521;53.146;6.556;2023-05-24T05:10:01;9.10;99.90
54622;DHT22;40521;53.146;6.556;2023-05-24T05:12:26;8.80;99.90
54622;DHT22;40521;53.146;6.556;2023-05-24T05:14:55;7.50;99.90
54622;DHT22;40521;53.146;6.556;2023-05-24T05:17:21;9.00;99.90
54622;DHT22;40521;53.146;6.556;2023-05-24T05:19:49;7.00;99.90
54622;DHT22;40521;53.146;6.556;2023-05-24T05:22:20;9.40;99.90
54622;DHT22;40521;53.146;6.556;2023-05-24T05:24:46;9.10;99.90
54622;DHT22;40521;53.146;6.556;2023-05-24T05:27:14;9.10;99.90
54622;DHT22;40521;53.146;6.556;2023-05-24T05:29:40;9.40;99.90
54622;DHT22;40521;53.146;6.556;2023-05-24T05:32:06;9.50;99.90
54622;DHT22;40521;53.146;6.556;2023-05-24T05:34:34;7.60;99.90
54622;DHT22;40521;53.146;6.556;2023-05-24T05:37:00;9.40;99.90
54622;DHT22;40521;53.146;6.556;2023-05-24T05:39:33;9.40;99.90
54622;DHT22;40521;53.146;6.556;2023-05-24T05:41:59;9.50;99.90
54622;DHT22;40521;53.146;6.556;2023-05-24T05:44:26;10.30;99.90
54622;DHT22;40521;53.146;6.556;2023-05-24T05:46:54;10.60;99.90
54622;DHT22;40521;53.146;6.556;2023-05-24T05:49:31;9.90;99.90
54622;DHT22;40521;53.146;6.556;2023-05-24T05:52:03;9.90;99.90
54622;DHT22;40521;53.146;6.556;2023-05-24T05:54:31;9.90;99.90
54622;DHT22;40521;53.146;6.556;2023-05-24T05:57:02;10.00;99.90
54622;DHT22;40521;53.146;6.556;2023-05-24T05:59:31;10.00;99.90
54622;DHT22;40521;53.146;6.556;2023-05-24T06:02:00;10.00;99.90
54622;DHT22;40521;53.146;6.556;2023-05-24T06:04:26;10.20;99.90
54622;DHT22;40521;53.146;6.556;2023-05-24T06:06:54;10.30;99.90
54622;DHT22;40521;53.146;6.556;2023-05-24T06:09:35;10.60;99.90
54622;DHT22;40521;53.146;6.556;2023-05-24T06:12:06;10.80;99.90
54622;DHT22;40521;53.146;6.556;2023-05-24T06:14:42;10.50;99.90
54622;DHT22;40521;53.146;6.556;2023-05-24T06:17:15;10.60;99.90
54622;DHT22;40521;53.146;6.556;2023-05-24T06:19:41;11.30;99.90
54622;DHT22;40521;53.146;6.556;2023-05-24T06:22:12;11.00;99.90
54622;DHT22;40521;53.146;6.556;2023-05-24T06:24:45;9.90;99.90
54622;DHT22;40521;53.146;6.556;2023-05-24T06:27:26;11.20;99.90
54622;DHT22;40521;53.146;6.556;2023-05-24T06:29:55;11.40;99.90
54622;DHT22;40521;53.146;6.556;2023-05-24T06:32:25;11.80;99.90
54622;DHT22;40521;53.146;6.556;2023-05-24T06:34:51;12.50;99.90
54622;DHT22;40521;53.146;6.556;2023-05-24T06:37:17;10.00;99.90
54622;DHT22;40521;53.146;6.556;2023-05-24T06:39:58;11.50;99.90
54622;DHT22;40521;53.146;6.556;2023-05-24T06:42:24;12.10;99.90
54622;DHT22;40521;53.146;6.556;2023-05-24T06:44:49;11.60;99.90
54622;DHT22;40521;53.146;6.556;2023-05-24T06:47:18;12.40;99.90
54622;DHT22;40521;53.146;6.556;2023-05-24T06:49:49;11.70;99.90
54622;DHT22;40521;53.146;6.556;2023-05-24T06:52:15;11.80;99.90
54622;DHT22;40521;53.146;6.556;2023-05-24T06:54:41;13.30;99.90
54622;DHT22;40521;53.146;6.556;2023-05-24T06:57:09;12.70;99.90
54622;DHT22;40521;53.146;6.556;2023-05-24T06:59:37;12.40;99.90
54622;DHT22;40521;53.146;6.556;2023-05-24T07:02:05;11.90;99.90
54622;DHT22;40521;53.146;6.556;2023-05-24T07:04:31;11.90;99.90
54622;DHT22;40521;53.146;6.556;2023-05-24T07:06:57;11.90;99.90
54622;DHT22;40521;53.146;6.556;2023-05-24T07:09:22;12.00;99.90
54622;DHT22;40521;53.146;6.556;2023-05-24T07:11:48;9.60;99.90
54622;DHT22;40521;53.146;6.556;2023-05-24T07:14:14;11.90;99.90
54622;DHT22;40521;53.146;6.556;2023-05-24T07:16:47;12.10;99.90
54622;DHT22;40521;53.146;6.556;2023-05-24T07:19:14;12.20;99.90
54622;DHT22;40521;53.146;6.556;2023-05-24T07:21:39;11.90;99.90
54622;DHT22;40521;53.146;6.556;2023-05-24T07:24:07;11.90;99.90
54622;DHT22;40521;53.146;6.556;2023-05-24T07:26:33;12.00;99.90
54622;DHT22;40521;53.146;6.556;2023-05-24T07:28:59;12.40;99.90
54622;DHT22;40521;53.146;6.556;2023-05-24T07:31:27;12.20;99.90
54622;DHT22;40521;53.146;6.556;2023-05-24T07:33:58;11.90;99.90
54622;DHT22;40521;53.146;6.556;2023-05-24T07:36:24;11.90;99.90
54622;DHT22;40521;53.146;6.556;2023-05-24T07:38:59;12.10;99.90
54622;DHT22;40521;53.146;6.556;2023-05-24T07:41:26;12.10;99.90
54622;DHT22;40521;53.146;6.556;2023-05-24T07:43:54;13.10;99.90
54622;DHT22;40521;53.146;6.556;2023-05-24T07:46:20;12.30;99.90
54622;DHT22;40521;53.146;6.556;2023-05-24T07:48:46;12.40;99.90
54622;DHT22;40521;53.146;6.556;2023-05-24T07:51:14;12.50;99.90
54622;DHT22;40521;53.146;6.556;2023-05-24T07:53:42;12.40;99.90
54622;DHT22;40521;53.146;6.556;2023-05-24T07:56:07;13.00;99.90
54622;DHT22;40521;53.146;6.556;2023-05-24T07:58:34;12.50;99.90
54622;DHT22;40521;53.146;6.556;2023-05-24T08:00:59;12.70;99.90
54622;DHT22;40521;53.146;6.556;2023-05-24T08:03:25;12.80;99.90
54622;DHT22;40521;53.146;6.556;2023-05-24T08:05:51;12.90;99.90
54622;DHT22;40521;53.146;6.556;2023-05-24T08:08:17;13.00;99.90
54622;DHT22;40521;53.146;6.556;2023-05-24T08:10:45;13.30;99.90
54622;DHT22;40521;53.146;6.556;2023-05-24T08:13:11;13.10;99.90
54622;DHT22;40521;53.146;6.556;2023-05-24T08:15:37;13.30;99.90
54622;DHT22;40521;53.146;6.556;2023-05-24T08:18:06;13.50;99.90
54622;DHT22;40521;53.146;6.556;2023-05-24T08:20:34;13.20;99.90
54622;DHT22;40521;53.146;6.556;2023-05-24T08:23:01;13.80;99.90
54622;DHT22;40521;53.146;6.556;2023-05-24T08:25:32;13.20;99.90
54622;DHT22;40521;53.146;6.556;2023-05-24T08:27:58;13.10;99.90
54622;DHT22;40521;53.146;6.556;2023-05-24T08:30:26;14.40;99.90
54622;DHT22;40521;53.146;6.556;2023-05-24T08:32:54;13.30;99.90
54622;DHT22;40521;53.146;6.556;2023-05-24T08:35:23;13.30;99.90
54622;DHT22;40521;53.146;6.556;2023-05-24T08:37:49;15.00;99.90
54622;DHT22;40521;53.146;6.556;2023-05-24T08:40:17;13.80;99.90
54622;DHT22;40521;53.146;6.556;2023-05-24T08:42:43;13.90;99.90
54622;DHT22;40521;53.146;6.556;2023-05-24T08:47:35;13.70;99.90
54622;DHT22;40521;53.146;6.556;2023-05-24T08:50:04;14.00;99.90
54622;DHT22;40521;53.146;6.556;2023-05-24T08:52:31;14.00;99.90
54622;DHT22;40521;53.146;6.556;2023-05-24T08:55:04;14.00;99.90
54622;DHT22;40521;53.146;6.556;2023-05-24T08:57:30;14.20;99.90
54622;DHT22;40521;53.146;6.556;2023-05-24T08:59:58;14.80;99.90
54622;DHT22;40521;53.146;6.556;2023-05-24T09:02:24;14.50;99.90
54622;DHT22;40521;53.146;6.556;2023-05-24T09:04:53;14.30;99.90
54622;DHT22;40521;53.146;6.556;2023-05-24T09:07:29;14.30;99.90
54622;DHT22;40521;53.146;6.556;2023-05-24T09:09:56;14.30;99.90
54622;DHT22;40521;53.146;6.556;2023-05-24T09:12:22;12.80;99.90
54622;DHT22;40521;53.146;6.556;2023-05-24T09:14:51;14.10;99.90
54622;DHT22;40521;53.146;6.556;2023-05-24T09:17:17;14.10;99.90
54622;DHT22;40521;53.146;6.556;2023-05-24T09:19:48;15.40;99.90
54622;DHT22;40521;53.146;6.556;2023-05-24T09:22:15;14.40;99.90
54622;DHT22;40521;53.146;6.556;2023-05-24T09:25:17;14.40;99.90
54622;DHT22;40521;53.146;6.556;2023-05-24T09:27:38;14.40;99.90
54622;DHT22;40521;53.146;6.556;2023-05-24T09:30:08;12.90;99.90
54622;DHT22;40521;53.146;6.556;2023-05-24T09:32:34;14.60;99.90
54622;DHT22;40521;53.146;6.556;2023-05-24T09:35:07;14.20;99.90
54622;DHT22;40521;53.146;6.556;2023-05-24T09:37:36;14.30;99.90
54622;DHT22;40521;53.146;6.556;2023-05-24T09:40:16;13.10;99.90
54622;DHT22;40521;53.146;6.556;2023-05-24T09:42:42;14.40;99.90
54622;DHT22;40521;53.146;6.556;2023-05-24T09:45:11;15.70;99.90
54622;DHT22;40521;53.146;6.556;2023-05-24T09:47:39;14.80;99.90
54622;DHT22;40521;53.146;6.556;2023-05-24T09:50:08;14.60;99.90
54622;DHT22;40521;53.146;6.556;2023-05-24T09:52:36;14.20;99.90
54622;DHT22;40521;53.146;6.556;2023-05-24T09:57:37;14.70;99.90
54622;DHT22;40521;53.146;6.556;2023-05-24T10:00:06;14.70;99.90
54622;DHT22;40521;53.146;6.556;2023-05-24T10:02:42;14.90;99.90
54622;DHT22;40521;53.146;6.556;2023-05-24T10:05:11;14.70;99.90
54622;DHT22;40521;53.146;6.556;2023-05-24T10:07:37;15.30;99.90
54622;DHT22;40521;53.146;6.556;2023-05-24T10:10:04;14.70;99.90
54622;DHT22;40521;53.146;6.556;2023-05-24T10:12:31;12.90;99.90
54622;DHT22;40521;53.146;6.556;2023-05-24T10:15:00;13.20;99.90
54622;DHT22;40521;53.146;6.556;2023-05-24T10:17:27;14.80;99.90
54622;DHT22;40521;53.146;6.556;2023-05-24T10:19:55;15.30;99.90
54622;DHT22;40521;53.146;6.556;2023-05-24T10:22:21;15.70;99.90
54622;DHT22;40521;53.146;6.556;2023-05-24T10:24:52;15.30;99.90
54622;DHT22;40521;53.146;6.556;2023-05-24T10:27:24;15.00;99.90
54622;DHT22;40521;53.146;6.556;2023-05-24T10:30:00;15.30;99.90
54622;DHT22;40521;53.146;6.556;2023-05-24T10:32:30;14.90;99.90
54622;DHT22;40521;53.146;6.556;2023-05-24T10:34:57;14.60;99.90
54622;DHT22;40521;53.146;6.556;2023-05-24T10:37:24;14.30;99.90
54622;DHT22;40521;53.146;6.556;2023-05-24T10:39:50;14.20;99.90
54622;DHT22;40521;53.146;6.556;2023-05-24T10:42:16;14.30;99.90
54622;DHT22;40521;53.146;6.556;2023-05-24T10:44:44;14.60;99.90
54622;DHT22;40521;53.146;6.556;2023-05-24T10:47:12;14.20;99.90
54622;DHT22;40521;53.146;6.556;2023-05-24T10:50:00;14.40;99.90
54622;DHT22;40521;53.146;6.556;2023-05-24T10:52:37;14.10;99.90
54622;DHT22;40521;53.146;6.556;2023-05-24T10:55:04;14.80;99.90
54622;DHT22;40521;53.146;6.556;2023-05-24T10:57:30;14.00;99.90
54622;DHT22;40521;53.146;6.556;2023-05-24T11:02:41;14.70;99.90
54622;DHT22;40521;53.146;6.556;2023-05-24T11:05:06;14.70;99.90
54622;DHT22;40521;53.146;6.556;2023-05-24T11:07:37;14.40;99.90
54622;DHT22;40521;53.146;6.556;2023-05-24T11:10:08;14.90;99.90
54622;DHT22;40521;53.146;6.556;2023-05-24T11:12:37;14.50;99.90
54622;DHT22;40521;53.146;6.556;2023-05-24T11:15:10;14.60;99.90
54622;DHT22;40521;53.146;6.556;2023-05-24T11:20:23;14.80;99.90
54622;DHT22;40521;53.146;6.556;2023-05-24T11:22:49;15.10;99.90
54622;DHT22;40521;53.146;6.556;2023-05-24T11:25:14;15.40;99.90
54622;DHT22;40521;53.146;6.556;2023-05-24T11:27:43;15.40;99.90
54622;DHT22;40521;53.146;6.556;2023-05-24T11:30:32;15.30;99.90
54622;DHT22;40521;53.146;6.556;2023-05-24T11:32:58;15.10;99.90
54622;DHT22;40521;53.146;6.556;2023-05-24T11:35:37;12.50;99.90
54622;DHT22;40521;53.146;6.556;2023-05-24T11:38:08;14.50;99.90
54622;DHT22;40521;53.146;6.556;2023-05-24T11:40:41;14.60;99.90
54622;DHT22;40521;53.146;6.556;2023-05-24T11:43:11;14.70;99.90
54622;DHT22;40521;53.146;6.556;2023-05-24T11:51:46;14.70;99.90
54622;DHT22;40521;53.146;6.556;2023-05-24T11:54:11;15.50;99.90
54622;DHT22;40521;53.146;6.556;2023-05-24T11:56:46;15.30;99.90
54622;DHT22;40521;53.146;6.556;2023-05-24T12:02:04;15.10;99.90
54622;DHT22;40521;53.146;6.556;2023-05-24T12:04:42;14.90;99.90
54622;DHT22;40521;53.146;6.556;2023-05-24T12:07:14;15.00;99.90
54622;DHT22;40521;53.146;6.556;2023-05-24T12:09:42;15.10;99.90
54622;DHT22;40521;53.146;6.556;2023-05-24T12:12:11;15.60;99.90
54622;DHT22;40521;53.146;6.556;2023-05-24T12:14:39;15.00;99.90
54622;DHT22;40521;53.146;6.556;2023-05-24T12:17:12;15.10;99.90
54622;DHT22;40521;53.146;6.556;2023-05-24T12:19:47;15.20;99.90
54622;DHT22;40521;53.146;6.556;2023-05-24T12:22:24;14.70;99.90
54622;DHT22;40521;53.146;6.556;2023-05-24T12:24:53;15.00;99.90
54622;DHT22;40521;53.146;6.556;2023-05-24T12:27:18;14.50;99.90
54622;DHT22;40521;53.146;6.556;2023-05-24T12:29:45;14.80;99.90
54622;DHT22;40521;53.146;6.556;2023-05-24T12:32:15;14.70;99.90
54622;DHT22;40521;53.146;6.556;2023-05-24T12:34:43;15.10;99.90
54622;DHT22;40521;53.146;6.556;2023-05-24T12:37:09;13.10;99.90
54622;DHT22;40521;53.146;6.556;2023-05-24T12:39:45;15.40;99.90
54622;DHT22;40521;53.146;6.556;2023-05-24T12:42:14;16.30;99.90
54622;DHT22;40521;53.146;6.556;2023-05-24T12:44:40;15.30;99.90
54622;DHT22;40521;53.146;6.556;2023-05-24T12:47:17;15.30;99.90
54622;DHT22;40521;53.146;6.556;2023-05-24T12:52:45;13.90;99.90
54622;DHT22;40521;53.146;6.556;2023-05-24T12:55:14;15.60;99.90
54622;DHT22;40521;53.146;6.556;2023-05-24T12:57:42;15.10;99.90
54622;DHT22;40521;53.146;6.556;2023-05-24T13:00:17;15.20;99.90
54622;DHT22;40521;53.146;6.556;2023-05-24T13:02:49;15.40;99.90
54622;DHT22;40521;53.146;6.556;2023-05-24T13:05:17;15.40;99.90
54622;DHT22;40521;53.146;6.556;2023-05-24T13:07:46;15.00;99.90
54622;DHT22;40521;53.146;6.556;2023-05-24T13:10:12;15.20;99.90
54622;DHT22;40521;53.146;6.556;2023-05-24T13:12:38;15.00;99.90
54622;DHT22;40521;53.146;6.556;2023-05-24T13:15:06;13.30;99.90
54622;DHT22;40521;53.146;6.556;2023-05-24T13:17:34;15.10;99.90
54622;DHT22;40521;53.146;6.556;2023-05-24T13:20:01;15.30;99.90
54622;DHT22;40521;53.146;6.556;2023-05-24T13:22:30;14.00;99.90
54622;DHT22;40521;53.146;6.556;2023-05-24T13:25:06;15.90;99.90
54622;DHT22;40521;53.146;6.556;2023-05-24T13:27:35;15.90;99.90
54622;DHT22;40521;53.146;6.556;2023-05-24T13:30:04;16.10;99.90
54622;DHT22;40521;53.146;6.556;2023-05-24T13:32:42;16.10;99.90
54622;DHT22;40521;53.146;6.556;2023-05-24T13:35:13;18.50;99.90
54622;DHT22;40521;53.146;6.556;2023-05-24T13:37:42;15.90;99.90
54622;DHT22;40521;53.146;6.556;2023-05-24T13:40:10;14.30;99.90
54622;DHT22;40521;53.146;6.556;2023-05-24T13:42:36;15.70;99.90
54622;DHT22;40521;53.146;6.556;2023-05-24T13:45:13;16.10;99.90
54622;DHT22;40521;53.146;6.556;2023-05-24T13:47:42;15.80;99.90
54622;DHT22;40521;53.146;6.556;2023-05-24T13:50:12;16.00;99.90
54622;DHT22;40521;53.146;6.556;2023-05-24T13:52:40;16.70;99.90
54622;DHT22;40521;53.146;6.556;2023-05-24T13:55:16;16.90;99.90
54622;DHT22;40521;53.146;6.556;2023-05-24T13:57:42;16.90;99.90
54622;DHT22;40521;53.146;6.556;2023-05-24T14:00:22;16.60;99.90
54622;DHT22;40521;53.146;6.556;2023-05-24T14:02:56;16.80;99.90
54622;DHT22;40521;53.146;6.556;2023-05-24T14:05:27;16.20;99.90
54622;DHT22;40521;53.146;6.556;2023-05-24T14:07:55;15.80;99.90
54622;DHT22;40521;53.146;6.556;2023-05-24T14:10:21;15.90;99.90
54622;DHT22;40521;53.146;6.556;2023-05-24T14:12:48;15.90;99.90
54622;DHT22;40521;53.146;6.556;2023-05-24T14:15:19;15.80;99.90
54622;DHT22;40521;53.146;6.556;2023-05-24T14:17:47;15.90;99.90
54622;DHT22;40521;53.146;6.556;2023-05-24T14:20:15;16.40;99.90
54622;DHT22;40521;53.146;6.556;2023-05-24T14:22:41;16.50;99.90
54622;DHT22;40521;53.146;6.556;2023-05-24T14:25:14;17.20;99.90
54622;DHT22;40521;53.146;6.556;2023-05-24T14:27:43;16.90;99.90
54622;DHT22;40521;53.146;6.556;2023-05-24T14:30:10;16.60;99.90
54622;DHT22;40521;53.146;6.556;2023-05-24T14:35:50;14.10;99.90
54622;DHT22;40521;53.146;6.556;2023-05-24T14:38:15;16.80;99.90
54622;DHT22;40521;53.146;6.556;2023-05-24T14:44:36;16.80;99.90
54622;DHT22;40521;53.146;6.556;2023-05-24T14:47:06;19.50;99.90
54622;DHT22;40521;53.146;6.556;2023-05-24T14:52:43;17.80;99.90
54622;DHT22;40521;53.146;6.556;2023-05-24T14:55:38;17.40;99.90
54622;DHT22;40521;53.146;6.556;2023-05-24T14:58:19;17.30;99.90
54622;DHT22;40521;53.146;6.556;2023-05-24T15:00:47;14.70;99.90
54622;DHT22;40521;53.146;6.556;2023-05-24T15:03:15;14.60;99.90
54622;DHT22;40521;53.146;6.556;2023-05-24T15:05:56;19.80;99.90
54622;DHT22;40521;53.146;6.556;2023-05-24T15:08:45;17.10;99.90
54622;DHT22;40521;53.146;6.556;2023-05-24T15:11:22;17.10;99.90
54622;DHT22;40521;53.146;6.556;2023-05-24T15:14:06;17.20;99.90
54622;DHT22;40521;53.146;6.556;2023-05-24T15:19:50;19.30;99.90
54622;DHT22;40521;53.146;6.556;2023-05-24T15:29:29;15.50;99.90
54622;DHT22;40521;53.146;6.556;2023-05-24T15:59:27;15.50;99.90
54622;DHT22;40521;53.146;6.556;2023-05-24T16:01:53;16.90;99.90
54622;DHT22;40521;53.146;6.556;2023-05-24T16:04:19;16.90;99.90
54622;DHT22;40521;53.146;6.556;2023-05-24T16:06:47;17.10;99.90
54622;DHT22;40521;53.146;6.556;2023-05-24T16:09:13;17.00;99.90
54622;DHT22;40521;53.146;6.556;2023-05-24T16:11:39;16.80;99.90
54622;DHT22;40521;53.146;6.556;2023-05-24T16:14:05;16.80;99.90
54622;DHT22;40521;53.146;6.556;2023-05-24T16:16:30;16.60;99.90
54622;DHT22;40521;53.146;6.556;2023-05-24T16:18:56;16.50;99.90
54622;DHT22;40521;53.146;6.556;2023-05-24T16:21:42;16.40;99.90
54622;DHT22;40521;53.146;6.556;2023-05-24T16:24:07;16.20;99.90
54622;DHT22;40521;53.146;6.556;2023-05-24T16:26:33;16.10;99.90
54622;DHT22;40521;53.146;6.556;2023-05-24T16:28:59;15.90;99.90
54622;DHT22;40521;53.146;6.556;2023-05-24T16:31:26;15.70;99.90
54622;DHT22;40521;53.146;6.556;2023-05-24T16:33:51;15.60;99.90
54622;DHT22;40521;53.146;6.556;2023-05-24T16:36:17;15.40;99.90
54622;DHT22;40521;53.146;6.556;2023-05-24T16:38:43;15.20;99.90
54622;DHT22;40521;53.146;6.556;2023-05-24T16:41:08;15.10;99.90
54622;DHT22;40521;53.146;6.556;2023-05-24T16:43:34;15.00;99.90
54622;DHT22;40521;53.146;6.556;2023-05-24T16:46:00;14.80;99.90
54622;DHT22;40521;53.146;6.556;2023-05-24T16:48:25;14.80;99.90
54622;DHT22;40521;53.146;6.556;2023-05-24T16:50:56;14.70;99.90
54622;DHT22;40521;53.146;6.556;2023-05-24T16:53:23;14.70;99.90
54622;DHT22;40521;53.146;6.556;2023-05-24T16:55:55;14.70;99.90
54622;DHT22;40521;53.146;6.556;2023-05-24T16:58:24;14.70;99.90
54622;DHT22;40521;53.146;6.556;2023-05-24T17:00:52;14.60;99.90
54622;DHT22;40521;53.146;6.556;2023-05-24T17:03:18;14.60;99.90
54622;DHT22;40521;53.146;6.556;2023-05-24T17:05:46;14.60;99.90
54622;DHT22;40521;53.146;6.556;2023-05-24T17:08:16;14.70;99.90
54622;DHT22;40521;53.146;6.556;2023-05-24T17:10:48;14.50;99.90
54622;DHT22;40521;53.146;6.556;2023-05-24T17:13:23;14.50;99.90
54622;DHT22;40521;53.146;6.556;2023-05-24T17:15:49;14.50;99.90